Time;durP1;ratioP1;P1;durP2;ratioP2;P2;SDS_P1;SDS_P2;PMS_P1;PMS_P2;Temp;Humidity;BMP_temperature;BMP_pressure;BME280_temperature;BME280_humidity;BME280_pressure;Samples;Min_cycle;Max_cycle;Signal;HPM_P1;HPM_P2
2024/04/25 00:02:19;;;;;;;;;;;;;;;;;;5457160;26;19928;-77
2024/04/25 00:04:49;;;;;;;;;;;;;;;;;;5456811;26;20081;-77
2024/04/25 00:07:15;;;;;;;;;;;;;;;;;;5457189;26;19929;-77
2024/04/25 00:09:41;;;;;;;;;;;;;;;;;;5457074;26;19952;-76
2024/04/25 00:12:07;;;;;;;;;;;;;;;;;;5457048;26;19928;-77
2024/04/25 00:14:33;;;;;;;;;;;;;;;;;;5457550;26;19935;-77
2024/04/25 00:16:59;;;;;;;;;;;;;;;;;;5456903;26;19936;-77
2024/04/25 00:19:25;;;;;;;;;;;;;;;;;;5457249;26;19940;-78
2024/04/25 00:21:51;;;;;;;;;;;;;;;;;;5457119;26;20388;-77
2024/04/25 00:24:17;;;;;;;;;;;;;;;;;;5456399;26;20264;-77
2024/04/25 00:26:43;;;;;;;;;;;;;;;;;;5456680;26;19936;-76
2024/04/25 00:29:09;;;;;;;;;;;;;;;;;;5456443;26;20372;-75
2024/04/25 00:31:35;;;;;;;;;;;;;;;;;;5454494;26;19937;-76
2024/04/25 00:34:01;;;;;;;;;;;;;;;;;;5457086;26;19943;-75
2024/04/25 00:36:27;;;;;;;;;;;;;;;;;;5456264;26;19929;-78
2024/04/25 00:38:53;;;;;;;;;;;;;;;;;;5456163;26;19928;-78
2024/04/25 00:41:19;;;;;;;;;;;;;;;;;;5456406;26;19935;-78
2024/04/25 00:43:50;;;;;;;;;;;;;;;;;;5454528;26;19936;-77
2024/04/25 00:46:16;;;;;;;;;;;;;;;;;;5454011;26;19929;-77
2024/04/25 00:48:42;;;;;;;;;;;;;;;;;;5455956;26;20261;-77
2024/04/25 00:51:08;;;;;;;;;;;;;;;;;;5454369;26;19928;-77
2024/04/25 00:53:34;;;;;;;;;;;;;;;;;;5455669;26;20004;-77
2024/04/25 00:56:00;;;;;;;;;;;;;;;;;;5455946;26;19935;-77
2024/04/25 00:58:26;;;;;;;;;;;;;;;;;;5454213;26;19929;-77
2024/04/25 01:00:52;;;;;;;;;;;;;;;;;;5453681;26;19997;-77
2024/04/25 01:03:18;;;;;;;;;;;;;;;;;;5454046;26;19940;-76
2024/04/25 01:05:44;;;;;;;;;;;;;;;;;;5455789;26;20441;-76
2024/04/25 01:08:09;;;;;;;;;;;;;;;;;;5453296;26;19929;-77
2024/04/25 01:10:35;;;;;;;;;;;;;;;;;;5455851;26;19928;-77
2024/04/25 01:13:01;;;;;;;;;;;;;;;;;;5455977;26;19940;-77
2024/04/25 01:15:27;;;;;;;;;;;;;;;;;;5455444;26;19940;-77
2024/04/25 01:17:53;;;;;;;;;;;;;;;;;;5455881;26;19955;-77
2024/04/25 01:20:19;;;;;;;;;;;;;;;;;;5455479;26;19940;-78
2024/04/25 01:22:48;;;;;;;;;;;;;;;;;;5453875;26;19928;-77
2024/04/25 01:25:14;;;;;;;;;;;;;;;;;;5455519;26;19929;-77
2024/04/25 01:27:40;;;;;;;;;;;;;;;;;;5453226;26;20002;-75
2024/04/25 01:30:06;;;;;;;;;;;;;;;;;;5453644;26;19929;-75
2024/04/25 01:32:32;;;;;;;;;;;;;;;;;;5453570;26;19940;-76
2024/04/25 01:34:58;;;;;;;;;;;;;;;;;;5455360;26;19937;-75
2024/04/25 01:37:24;;;;;;;;;;;;;;;;;;5453626;26;20352;-77
2024/04/25 01:39:50;;;;;;;;;;;;;;;;;;5455591;26;20339;-78
2024/04/25 01:42:16;;;;;;;;;;;;;;;;;;5455022;26;19968;-77
2024/04/25 01:44:42;;;;;;;;;;;;;;;;;;5455592;26;19997;-76
2024/04/25 01:47:08;;;;;;;;;;;;;;;;;;5455233;26;19932;-75
2024/04/25 01:49:34;;;;;;;;;;;;;;;;;;5452955;26;19928;-76
2024/04/25 01:52:00;;;;;;;;;;;;;;;;;;5455280;26;19929;-76
2024/04/25 01:54:26;;;;;;;;;;;;;;;;;;5455289;26;19935;-77
2024/04/25 01:56:52;;;;;;;;;;;;;;;;;;5454962;26;19928;-76
2024/04/25 01:59:18;;;;;;;;;;;;;;;;;;5455049;26;19957;-77
2024/04/25 02:01:43;;;;;;;;;;;;;;;;;;5455011;26;19928;-75
2024/04/25 02:04:09;;;;;;;;;;;;;;;;;;5452781;26;19978;-75
2024/04/25 02:06:35;;;;;;;;;;;;;;;;;;5455065;26;19935;-75
2024/04/25 02:09:01;;;;;;;;;;;;;;;;;;5453025;26;20381;-76
2024/04/25 02:11:27;;;;;;;;;;;;;;;;;;5454699;26;19939;-76
2024/04/25 02:13:53;;;;;;;;;;;;;;;;;;5455190;26;19932;-76
2024/04/25 02:16:19;;;;;;;;;;;;;;;;;;5455230;26;19929;-76
2024/04/25 02:18:45;;;;;;;;;;;;;;;;;;5453818;26;19928;-76
2024/04/25 02:26:40;;;;;;;;;;;;;;;;;;5455006;26;19936;-75
2024/04/25 02:29:06;;;;;;;;;;;;;;;;;;5455050;26;20329;-75
2024/04/25 02:31:37;;;;;;;;;;;;;;;;;;5454523;26;20285;-75
2024/04/25 02:34:03;;;;;;;;;;;;;;;;;;5454851;26;20333;-75
2024/04/25 02:36:29;;;;;;;;;;;;;;;;;;5454826;26;19997;-75
2024/04/25 02:38:54;;;;;;;;;;;;;;;;;;5454256;26;20340;-76
2024/04/25 02:41:20;;;;;;;;;;;;;;;;;;5454863;26;19928;-76
2024/04/25 02:43:46;;;;;;;;;;;;;;;;;;5454707;26;20365;-76
2024/04/25 02:46:12;;;;;;;;;;;;;;;;;;5454092;26;20277;-75
2024/04/25 02:48:38;;;;;;;;;;;;;;;;;;5452556;26;19937;-76
2024/04/25 02:51:04;;;;;;;;;;;;;;;;;;5452737;26;19929;-76
2024/04/25 02:53:31;;;;;;;;;;;;;;;;;;5454228;26;19937;-76
2024/04/25 02:55:57;;;;;;;;;;;;;;;;;;5454412;26;20349;-76
2024/04/25 02:58:23;;;;;;;;;;;;;;;;;;5452623;26;19935;-76
2024/04/25 03:00:49;;;;;;;;;;;;;;;;;;5454132;26;19928;-75
2024/04/25 03:03:15;;;;;;;;;;;;;;;;;;5454339;26;19928;-74
2024/04/25 03:05:41;;;;;;;;;;;;;;;;;;5452155;26;19935;-74
2024/04/25 03:08:07;;;;;;;;;;;;;;;;;;5454019;26;19928;-75
2024/04/25 03:10:32;;;;;;;;;;;;;;;;;;5452045;26;19940;-75
2024/04/25 03:12:58;;;;;;;;;;;;;;;;;;5453390;26;19929;-75
2024/04/25 03:15:24;;;;;;;;;;;;;;;;;;5453744;26;19974;-75
2024/04/25 03:17:50;;;;;;;;;;;;;;;;;;5453778;26;19944;-74
2024/04/25 03:20:16;;;;;;;;;;;;;;;;;;5453304;26;19948;-75
2024/04/25 03:22:42;;;;;;;;;;;;;;;;;;5451915;26;20322;-75
2024/04/25 03:25:08;;;;;;;;;;;;;;;;;;5453718;26;19936;-74
2024/04/25 03:27:34;;;;;;;;;;;;;;;;;;5453288;26;19992;-75
2024/04/25 03:30:00;;;;;;;;;;;;;;;;;;5454178;26;19932;-75
2024/04/25 03:32:28;;;;;;;;;;;;;;;;;;5455460;26;19928;-75
2024/04/25 03:34:54;;;;;;;;;;;;;;;;;;5456908;26;19928;-75
2024/04/25 03:37:20;;;;;;;;;;;;;;;;;;5457320;26;20005;-74
2024/04/25 03:39:46;;;;;;;;;;;;;;;;;;5457410;26;19939;-76
2024/04/25 03:42:12;;;;;;;;;;;;;;;;;;5457196;26;19935;-75
2024/04/25 03:44:38;;;;;;;;;;;;;;;;;;5455661;26;20256;-75
2024/04/25 03:47:04;;;;;;;;;;;;;;;;;;5457456;26;19928;-75
2024/04/25 03:49:30;;;;;;;;;;;;;;;;;;5456635;26;19929;-75
2024/04/25 03:51:56;;;;;;;;;;;;;;;;;;5456993;26;20433;-76
2024/04/25 03:54:22;;;;;;;;;;;;;;;;;;5454969;26;19928;-76
2024/04/25 03:56:48;;;;;;;;;;;;;;;;;;5456387;26;19929;-76
2024/04/25 03:59:14;;;;;;;;;;;;;;;;;;5455075;26;20421;-75
2024/04/25 04:01:40;;;;;;;;;;;;;;;;;;5456650;26;20297;-75
2024/04/25 04:04:06;;;;;;;;;;;;;;;;;;5454402;26;19935;-75
2024/04/25 04:06:32;;;;;;;;;;;;;;;;;;5456529;26;19940;-76
2024/04/25 04:08:58;;;;;;;;;;;;;;;;;;5456367;26;19929;-76
2024/04/25 04:11:24;;;;;;;;;;;;;;;;;;5454889;26;20007;-76
2024/04/25 04:13:50;;;;;;;;;;;;;;;;;;5455105;26;19928;-76
2024/04/25 04:16:16;;;;;;;;;;;;;;;;;;5456520;26;19952;-76
2024/04/25 04:18:41;;;;;;;;;;;;;;;;;;5456966;26;19928;-76
2024/04/25 04:21:07;;;;;;;;;;;;;;;;;;5457344;26;20334;-75
2024/04/25 04:23:33;;;;;;;;;;;;;;;;;;5456459;26;19937;-75
2024/04/25 04:25:59;;;;;;;;;;;;;;;;;;5454936;26;19936;-75
2024/04/25 04:28:25;;;;;;;;;;;;;;;;;;5456626;26;19936;-75
2024/04/25 04:30:51;;;;;;;;;;;;;;;;;;5454322;26;19932;-75
2024/04/25 04:33:17;;;;;;;;;;;;;;;;;;5454155;26;20373;-76
2024/04/25 04:35:43;;;;;;;;;;;;;;;;;;5456005;26;20378;-76
2024/04/25 04:38:09;;;;;;;;;;;;;;;;;;5452659;26;19928;-77
2024/04/25 04:40:35;;;;;;;;;;;;;;;;;;5455715;26;20249;-76
2024/04/25 04:43:01;;;;;;;;;;;;;;;;;;5456289;26;19929;-75
2024/04/25 04:45:27;;;;;;;;;;;;;;;;;;5455188;26;19929;-76
2024/04/25 04:47:53;;;;;;;;;;;;;;;;;;5456563;26;19998;-76
2024/04/25 04:50:19;;;;;;;;;;;;;;;;;;5458520;26;19941;-76
2024/04/25 04:52:45;;;;;;;;;;;;;;;;;;5432641;26;19940;-77
2024/04/25 04:55:11;;;;;;;;;;;;;;;;;;5439201;26;19936;-77
2024/04/25 04:57:37;;;;;;;;;;;;;;;;;;5419459;26;19936;-76
2024/04/25 05:00:03;;;;;;;;;;;;;;;;;;5418950;26;19929;-76
2024/04/25 05:02:29;;;;;;;;;;;;;;;;;;5419154;26;20025;-76
2024/04/25 05:04:55;;;;;;;;;;;;;;;;;;5419578;26;19940;-76
2024/04/25 05:07:21;;;;;;;;;;;;;;;;;;5418917;26;20269;-77
2024/04/25 05:09:47;;;;;;;;;;;;;;;;;;5417852;26;20013;-77
2024/04/25 05:12:13;;;;;;;;;;;;;;;;;;5418349;26;19929;-77
2024/04/25 05:14:39;;;;;;;;;;;;;;;;;;5418912;26;20010;-77
2024/04/25 05:17:05;;;;;;;;;;;;;;;;;;5413374;26;20437;-73
2024/04/25 05:19:33;;;;;;;;;;;;;;;;;;5440883;26;19936;-68
2024/04/25 05:21:59;;;;;;;;;;;;;;;;;;5452682;26;20001;-68
2024/04/25 05:24:25;;;;;;;;;;;;;;;;;;5447671;26;19965;-68
2024/04/25 05:26:54;;;;;;;;;;;;;;;;;;5418110;26;19937;-67
2024/04/25 05:29:21;;;;;;;;;;;;;;;;;;5416756;26;19936;-66
2024/04/25 05:31:47;;;;;;;;;;;;;;;;;;5443139;26;19940;-66
2024/04/25 05:34:13;;;;;;;;;;;;;;;;;;5452994;26;19928;-66
2024/04/25 05:36:43;;;;;;;;;;;;;;;;;;5454811;26;19968;-66
2024/04/25 05:39:10;;;;;;;;;;;;;;;;;;5442271;26;19948;-67
2024/04/25 05:41:36;;;;;;;;;;;;;;;;;;5447462;26;19928;-67
2024/04/25 05:44:03;;;;;;;;;;;;;;;;;;5447857;26;19928;-67
2024/04/25 05:46:30;;;;;;;;;;;;;;;;;;5453845;26;19928;-67
2024/04/25 05:49:02;;;;;;;;;;;;;;;;;;5421493;26;20280;-67
2024/04/25 05:51:28;;;;;;;;;;;;;;;;;;5418026;26;20261;-67
2024/04/25 05:53:55;;;;;;;;;;;;;;;;;;5416527;26;19929;-68
2024/04/25 05:56:23;;;;;;;;;;;;;;;;;;5417957;26;19979;-66
2024/04/25 05:58:54;;;;;;;;;;;;;;;;;;5417473;26;19935;-68
2024/04/25 06:01:29;;;;;;;;;;;;;;;;;;5419033;26;20257;-67
2024/04/25 06:03:56;;;;;;;;;;;;;;;;;;5425236;26;19936;-67
2024/04/25 06:06:21;;;;;;;;;;;;;;;;;;5453425;26;19939;-68
2024/04/25 06:08:47;;;;;;;;;;;;;;;;;;5438640;26;20369;-69
2024/04/25 06:11:13;;;;;;;;;;;;;;;;;;5454189;26;20261;-71
2024/04/25 06:13:41;;;;;;;;;;;;;;;;;;5450429;26;19928;-68
2024/04/25 06:16:07;;;;;;;;;;;;;;;;;;5453067;26;19928;-70
2024/04/25 06:18:34;;;;;;;;;;;;;;;;;;5453701;26;19939;-68
2024/04/25 06:21:00;;;;;;;;;;;;;;;;;;5452602;26;20361;-66
2024/04/25 06:23:26;;;;;;;;;;;;;;;;;;5424038;26;19997;-66
2024/04/25 06:25:52;;;;;;;;;;;;;;;;;;5453079;26;19928;-67
2024/04/25 06:28:18;;;;;;;;;;;;;;;;;;5448706;26;19944;-66
2024/04/25 06:30:46;;;;;;;;;;;;;;;;;;5427028;26;20327;-66
2024/04/25 06:33:13;;;;;;;;;;;;;;;;;;5415158;26;19929;-68
2024/04/25 06:35:38;;;;;;;;;;;;;;;;;;5414821;26;20335;-68
2024/04/25 06:38:04;;;;;;;;;;;;;;;;;;5411839;26;19929;-68
2024/04/25 06:40:31;;;;;;;;;;;;;;;;;;5417065;26;19929;-70
2024/04/25 06:42:56;;;;;;;;;;;;;;;;;;5451117;26;19928;-69
2024/04/25 06:45:22;;;;;;;;;;;;;;;;;;5452831;26;19956;-69
2024/04/25 06:47:48;;;;;;;;;;;;;;;;;;5451130;26;19940;-69
2024/04/25 06:50:15;;;;;;;;;;;;;;;;;;5450728;26;19928;-66
2024/04/25 06:52:41;;;;;;;;;;;;;;;;;;5452895;26;19928;-68
2024/04/25 06:55:07;;;;;;;;;;;;;;;;;;5453116;26;19956;-68
2024/04/25 06:57:33;;;;;;;;;;;;;;;;;;5452629;26;20262;-66
2024/04/25 06:59:59;;;;;;;;;;;;;;;;;;5444039;26;19936;-67
2024/04/25 07:02:25;;;;;;;;;;;;;;;;;;5414580;26;19929;-67
2024/04/25 07:04:59;;;;;;;;;;;;;;;;;;5413973;26;20262;-67
2024/04/25 07:07:25;;;;;;;;;;;;;;;;;;5412314;26;19936;-68
2024/04/25 07:09:51;;;;;;;;;;;;;;;;;;5414021;26;19955;-68
2024/04/25 07:12:17;;;;;;;;;;;;;;;;;;5411467;26;19936;-66
2024/04/25 07:14:43;;;;;;;;;;;;;;;;;;5414404;26;19929;-67
2024/04/25 07:17:08;;;;;;;;;;;;;;;;;;5415734;26;19936;-68
2024/04/25 07:19:35;;;;;;;;;;;;;;;;;;5447596;26;19929;-66
2024/04/25 07:22:01;;;;;;;;;;;;;;;;;;5452738;26;20314;-67
2024/04/25 07:24:29;;;;;;;;;;;;;;;;;;5438564;26;19937;-67
2024/04/25 07:26:54;;;;;;;;;;;;;;;;;;5415591;26;19929;-68
2024/04/25 07:29:20;;;;;;;;;;;;;;;;;;5413783;26;19936;-66
2024/04/25 07:31:46;;;;;;;;;;;;;;;;;;5414030;26;19929;-68
2024/04/25 07:34:12;;;;;;;;;;;;;;;;;;5413133;26;19979;-67
2024/04/25 07:36:38;;;;;;;;;;;;;;;;;;5413660;26;19937;-68
2024/04/25 07:39:04;;;;;;;;;;;;;;;;;;5416758;26;19929;-68
2024/04/25 07:41:31;;;;;;;;;;;;;;;;;;5427865;26;20050;-69
2024/04/25 07:44:02;;;;;;;;;;;;;;;;;;5449809;26;19975;-68
2024/04/25 07:46:28;;;;;;;;;;;;;;;;;;5449342;26;19928;-69
2024/04/25 07:48:54;;;;;;;;;;;;;;;;;;5424539;26;19936;-68
2024/04/25 07:51:20;;;;;;;;;;;;;;;;;;5448586;26;19929;-68
2024/04/25 07:53:46;;;;;;;;;;;;;;;;;;5449797;26;19951;-68
2024/04/25 07:56:14;;;;;;;;;;;;;;;;;;5439716;26;19928;-69
2024/04/25 07:58:40;;;;;;;;;;;;;;;;;;5419054;26;20362;-69
2024/04/25 08:01:05;;;;;;;;;;;;;;;;;;5425500;26;19936;-68
2024/04/25 08:03:31;;;;;;;;;;;;;;;;;;5413352;26;20001;-68
2024/04/25 08:05:57;;;;;;;;;;;;;;;;;;5413849;26;20420;-69
2024/04/25 08:08:23;;;;;;;;;;;;;;;;;;5412491;26;20261;-68
2024/04/25 08:10:49;;;;;;;;;;;;;;;;;;5407289;26;19935;-68
2024/04/25 08:13:15;;;;;;;;;;;;;;;;;;5408191;26;20488;-68
2024/04/25 08:15:43;;;;;;;;;;;;;;;;;;5409427;26;20355;-69
2024/04/25 08:18:09;;;;;;;;;;;;;;;;;;5413548;26;19941;-68
2024/04/25 08:20:35;;;;;;;;;;;;;;;;;;5414504;26;20418;-69
2024/04/25 08:23:01;;;;;;;;;;;;;;;;;;5413942;26;19937;-69
2024/04/25 08:25:27;;;;;;;;;;;;;;;;;;5414824;26;20044;-67
2024/04/25 08:27:55;;;;;;;;;;;;;;;;;;5411713;26;20246;-68
2024/04/25 08:30:21;;;;;;;;;;;;;;;;;;5453115;26;20471;-69
2024/04/25 08:32:47;;;;;;;;;;;;;;;;;;5449084;26;19928;-68
2024/04/25 08:35:13;;;;;;;;;;;;;;;;;;5450019;26;19936;-69
2024/04/25 08:37:39;;;;;;;;;;;;;;;;;;5449901;26;20643;-69
2024/04/25 08:40:05;;;;;;;;;;;;;;;;;;5449856;26;19978;-71
2024/04/25 08:42:31;;;;;;;;;;;;;;;;;;5451167;26;19929;-68
2024/04/25 08:44:57;;;;;;;;;;;;;;;;;;5451077;26;19928;-70
2024/04/25 08:47:23;;;;;;;;;;;;;;;;;;5455034;26;19997;-70
2024/04/25 08:49:49;;;;;;;;;;;;;;;;;;5455048;26;19939;-69
2024/04/25 08:52:15;;;;;;;;;;;;;;;;;;5454637;26;20265;-68
2024/04/25 08:54:40;;;;;;;;;;;;;;;;;;5455270;26;19940;-67
2024/04/25 08:57:06;;;;;;;;;;;;;;;;;;5454996;26;20380;-68
2024/04/25 08:59:33;;;;;;;;;;;;;;;;;;5450714;26;19929;-67
2024/04/25 09:01:59;;;;;;;;;;;;;;;;;;5452237;26;19937;-68
2024/04/25 09:04:26;;;;;;;;;;;;;;;;;;5442608;26;20338;-68
2024/04/25 09:06:52;;;;;;;;;;;;;;;;;;5412493;26;19932;-68
2024/04/25 09:09:18;;;;;;;;;;;;;;;;;;5414603;26;20003;-69
2024/04/25 09:11:44;;;;;;;;;;;;;;;;;;5408699;26;19929;-68
2024/04/25 09:14:10;;;;;;;;;;;;;;;;;;5415233;26;19930;-68
2024/04/25 09:16:39;;;;;;;;;;;;;;;;;;5416418;26;19939;-66
2024/04/25 09:19:07;;;;;;;;;;;;;;;;;;5413060;26;19929;-67
2024/04/25 09:21:33;;;;;;;;;;;;;;;;;;5404644;26;19929;-67
2024/04/25 09:23:59;;;;;;;;;;;;;;;;;;5414216;26;19936;-67
2024/04/25 09:26:28;;;;;;;;;;;;;;;;;;5448681;26;19929;-68
2024/04/25 09:28:54;;;;;;;;;;;;;;;;;;5449792;26;19944;-71
2024/04/25 09:31:20;;;;;;;;;;;;;;;;;;5418853;26;19933;-67
2024/04/25 09:33:46;;;;;;;;;;;;;;;;;;5448193;26;19929;-68
2024/04/25 09:36:13;;;;;;;;;;;;;;;;;;5445284;26;20373;-67
2024/04/25 09:38:40;;;;;;;;;;;;;;;;;;5441890;26;20029;-68
2024/04/25 09:41:07;;;;;;;;;;;;;;;;;;5436310;26;19941;-67
2024/04/25 09:43:33;;;;;;;;;;;;;;;;;;5433703;26;19929;-68
2024/04/25 09:45:59;;;;;;;;;;;;;;;;;;5447659;26;19928;-69
2024/04/25 09:48:25;;;;;;;;;;;;;;;;;;5448528;26;19929;-68
2024/04/25 09:50:51;;;;;;;;;;;;;;;;;;5447532;26;19998;-68
2024/04/25 09:53:17;;;;;;;;;;;;;;;;;;5444756;26;19951;-66
2024/04/25 09:55:44;;;;;;;;;;;;;;;;;;5445025;26;19929;-68
2024/04/25 09:58:10;;;;;;;;;;;;;;;;;;5441552;26;19944;-72
2024/04/25 10:01:58;;;;;;;;;;;;;;;;;;5465527;26;19936;-67
2024/04/25 10:04:28;;;;;;;;;;;;;;;;;;5430015;26;19929;-68
2024/04/25 10:07:35;;;;;;;;;;;;;;;;;;4765799;25;20289209;-68
2024/04/25 10:10:01;;;;;;;;;;;;;;;;;;5514028;25;20645;-66
2024/04/25 10:12:27;;;;;;;;;;;;;;;;;;5538966;25;19927;-66
2024/04/25 10:14:53;;;;;;;;;;;;;;;;;;5539188;25;19995;-67
2024/04/25 10:17:19;;;;;;;;;;;;;;;;;;5508854;25;19928;-65
2024/04/25 10:19:45;;;;;;;;;;;;;;;;;;5529893;25;19943;-66
2024/04/25 10:22:11;;;;;;;;;;;;;;;;;;5507073;25;19934;-66
2024/04/25 10:28:01;;;;;;;;;;;;;;;;;;5563278;25;20339;-66
2024/04/25 10:30:27;;;;;;;;;;;;;;;;;;5560617;25;19927;-68
2024/04/25 10:32:53;;;;;;;;;;;;;;;;;;5542091;25;20430;-66
2024/04/25 10:35:19;;;;;;;;;;;;;;;;;;5509589;25;19938;-70
2024/04/25 10:37:46;;;;;;;;;;;;;;;;;;5543383;25;19934;-70
2024/04/25 10:40:12;;;;;;;;;;;;;;;;;;5544865;25;20264;-70
2024/04/25 10:42:38;;;;;;;;;;;;;;;;;;5512380;25;19934;-71
2024/04/25 10:46:48;;;;;;;;;;;;;;;;;;5469425;26;19955;-72
2024/04/25 10:49:14;;;;;;;;;;;;;;;;;;5464787;26;19939;-67
2024/04/25 10:51:40;;;;;;;;;;;;;;;;;;5466741;26;19928;-67
2024/04/25 10:54:06;;;;;;;;;;;;;;;;;;5467297;26;19936;-67
2024/04/25 10:56:32;;;;;;;;;;;;;;;;;;5467719;26;19996;-67
2024/04/25 10:58:58;;;;;;;;;;;;;;;;;;5467944;26;19932;-67
2024/04/25 11:01:24;;;;;;;;;;;;;;;;;;5469026;26;20385;-67
2024/04/25 11:05:01;;;;;;;;;;;;;;;;;;5469674;26;20268;-67
2024/04/25 11:07:27;;;;;;;;;;;;;;;;;;5469065;26;19929;-66
2024/04/25 11:09:53;;;;;;;;;;;;;;;;;;5468965;26;20001;-66
2024/04/25 11:12:19;;;;;;;;;;;;;;;;;;5471332;26;19960;-69
2024/04/25 11:14:45;;;;;;;;;;;;;;;;;;5470882;26;19940;-68
2024/04/25 11:18:03;;;;;;;;;;;;;;;;;;5544569;25;19953;-66
2024/04/25 11:20:29;;;;;;;;;;;;;;;;;;5545600;25;19927;-68
2024/04/25 11:22:55;;;;;;;;;;;;;;;;;;5512345;25;19935;-68
2024/04/25 11:25:21;;;;;;;;;;;;;;;;;;5545121;25;19927;-66
2024/04/25 11:27:47;;;;;;;;;;;;;;;;;;5510106;25;19933;-66
2024/04/25 11:30:14;;;;;;;;;;;;;;;;;;5542023;25;19927;-67
2024/04/25 11:32:40;;;;;;;;;;;;;;;;;;5541038;25;19935;-67
2024/04/25 11:35:05;;;;;;;;;;;;;;;;;;5541489;25;20470;-67
2024/04/25 11:37:31;;;;;;;;;;;;;;;;;;5542664;25;19943;-67
2024/04/25 11:39:57;;;;;;;;;;;;;;;;;;5543873;25;19935;-67
2024/04/25 11:42:23;;;;;;;;;;;;;;;;;;5545789;25;20047;-67
2024/04/25 11:44:49;;;;;;;;;;;;;;;;;;5545455;25;19952;-68
2024/04/25 11:47:15;;;;;;;;;;;;;;;;;;5543005;25;20368;-69
2024/04/25 11:49:41;;;;;;;;;;;;;;;;;;5543815;25;19942;-67
2024/04/25 11:52:07;;;;;;;;;;;;;;;;;;5544573;25;19927;-68
2024/04/25 11:54:34;;;;;;;;;;;;;;;;;;5543773;25;19930;-68
2024/04/25 11:57:00;;;;;;;;;;;;;;;;;;5512436;25;19995;-68
2024/04/25 11:59:26;;;;;;;;;;;;;;;;;;5519504;25;19936;-66
2024/04/25 12:01:53;;;;;;;;;;;;;;;;;;5505533;26;19931;-66
2024/04/25 12:04:19;;;;;;;;;;;;;;;;;;5473132;26;19964;-66
2024/04/25 12:06:45;;;;;;;;;;;;;;;;;;5507088;25;19928;-67
2024/04/25 12:09:11;;;;;;;;;;;;;;;;;;5506657;26;19936;-67
2024/04/25 12:14:09;;;;;;;;;;;;;;;;;;5434625;26;19929;-66
2024/04/25 12:16:59;;;;;;;;;;;;;;;;;;5471882;26;19928;-68
2024/04/25 12:21:39;;;;;;;;;;;;;;;;;;5582714;25;19937;-67
2024/04/25 12:24:05;;;;;;;;;;;;;;;;;;5583276;25;20371;-67
2024/04/25 12:29:16;;;;;;;;;;;;;;;;;;5620449;25;19926;-70
2024/04/25 12:31:43;;;;;;;;;;;;;;;;;;5620245;25;20227;-69
2024/04/25 12:36:05;;;;;;;;;;;;;;;;;;5468879;26;20253;-67
2024/04/25 12:38:31;;;;;;;;;;;;;;;;;;5470741;26;19935;-68
2024/04/25 12:40:57;;;;;;;;;;;;;;;;;;5469912;26;19928;-68
2024/04/25 12:43:23;;;;;;;;;;;;;;;;;;5469231;26;19953;-67
2024/04/25 12:45:52;;;;;;;;;;;;;;;;;;5471553;26;19929;-67
2024/04/25 12:48:18;;;;;;;;;;;;;;;;;;5470046;26;19973;-68
2024/04/25 12:50:44;;;;;;;;;;;;;;;;;;5467399;26;20404;-67
2024/04/25 12:54:47;;;;;;;;;;;;;;;;;;5541815;25;19927;-74
2024/04/25 12:57:39;;;;;;;;;;;;;;;;;;5620392;25;19926;-73
2024/04/25 13:01:28;;;;;;;;;;;;;;;;;;5544796;25;19927;-73
2024/04/25 13:03:54;;;;;;;;;;;;;;;;;;5539844;25;20356;-74
2024/04/25 13:06:20;;;;;;;;;;;;;;;;;;5539992;25;19935;-74
2024/04/25 13:08:46;;;;;;;;;;;;;;;;;;5542646;25;19928;-76
2024/04/25 13:11:13;;;;;;;184.77;166.95;;;;;;;;;;5541248;25;20402;-74
2024/04/25 13:13:39;;;;;;;;;;;;;;;;;;5541032;25;19997;-74
2024/04/25 13:16:05;;;;;;;;;;;;;;;;;;5543585;25;19930;-73
2024/04/25 13:18:32;;;;;;;;;;;;;;;;;;5542131;25;19923;-74
2024/04/25 13:22:06;;;;;;;;;;;;;;;;;;5469791;26;19928;-73
2024/04/25 13:24:32;;;;;;;394.95;232.30;;;;;;;;;;5470238;26;20340;-73
2024/04/25 13:26:58;;;;;;;;;;;;;;;;;;5470588;26;20006;-73
2024/04/25 13:29:24;;;;;;;389.40;235.45;;;;;;;;;;5470479;26;20410;-73
2024/04/25 13:31:50;;;;;;;;;;;;;;;;;;5469449;26;19999;-72
2024/04/25 13:34:21;;;;;;;458.13;261.05;;;;;;;;;;5470245;26;20448;-73
2024/04/25 13:36:47;;;;;;;;;;;;;;;;;;5472390;26;20027;-75
2024/04/25 13:39:13;;;;;;;439.35;255.52;;;;;;;;;;5469550;26;20332;-74
2024/04/25 13:41:39;;;;;;;;;;;;;;;;;;5470529;26;20063;-73
2024/04/25 13:44:05;;;;;;;387.80;233.67;;;;;;;;;;5467241;26;20323;-73
2024/04/25 13:46:58;;;;;;;;;;;;;;;;;;5544696;25;19928;-74
2024/04/25 13:49:24;;;;;;;;;;;;;;;;;;5544197;25;20359;-75
2024/04/25 13:51:50;;;;;;;;;;;;;;;;;;5544485;25;19927;-75
2024/04/25 13:54:16;;;;;;;;;;;;;;;;;;5543807;25;19935;-75
2024/04/25 13:56:42;;;;;;;;;;;;;;;;;;5546483;25;19995;-74
2024/04/25 14:01:34;;;;;;;;;;;;;;;;;;5472003;26;19928;-74
2024/04/25 14:04:00;;;;;;;443.87;239.67;;;;;;;;;;5469803;26;20344;-73
2024/04/25 14:07:40;;;;;;;420.45;227.63;;;;;;;;;;5471647;25;20332;-73
2024/04/25 14:10:07;;;;;;;308.83;199.07;;;;;;;;;;5435190;26;20345;-73
2024/04/25 14:12:42;;;;;;;362.30;215.68;;;;;;;;;;5432909;26;20377;-73
2024/04/25 14:16:56;;;;;;;341.10;212.87;;;;;;;;;;5371093;25;4848843;-73
2024/04/25 14:19:25;;;;;;;428.75;239.40;;;;;;;;;;5484133;25;20359;-73
2024/04/25 14:21:55;;;;;;;370.33;218.90;;;;;;;;;;5521081;25;20821;-74
2024/04/25 14:24:23;;;;;;;333.17;209.43;;;;;;;;;;5473137;26;20339;-73
2024/04/25 14:29:46;;;;;;;;;;;;;;;;;;5508088;25;20303;-72
2024/04/25 14:32:12;;;;;;;;;;;;;;;;;;5509363;26;20375;-73
2024/04/25 14:34:39;;;;;;;;;;;;;;;;;;5508693;26;20357;-73
2024/04/25 14:37:07;;;;;;;;;;;;;;;;;;5508479;26;19928;-73
2024/04/25 14:39:33;;;;;;;;;;;;;;;;;;5509097;26;19939;-72
2024/04/25 14:42:04;;;;;;;246.18;198.48;;;;;;;;;;5506921;26;20789;-74
2024/04/25 14:44:35;;;;;;;;;;;;;;;;;;5468811;26;20026;-74
2024/04/25 14:47:06;;;;;;;;;;;;;;;;;;5468102;26;20323;-73
2024/04/25 14:49:34;;;;;;;;;;;;;;;;;;5469094;26;19957;-75
2024/04/25 14:52:00;;;;;;;;;;;;;;;;;;5469386;26;19924;-76
2024/04/25 14:54:25;;;;;;;;;;;;;;;;;;5469411;26;19961;-77
2024/04/25 14:56:51;;;;;;;;;;;;;;;;;;5467637;26;19931;-76
2024/04/25 14:59:17;;;;;;;;;;;;;;;;;;5469170;26;19925;-76
2024/04/25 15:01:43;;;;;;;;;;;;;;;;;;5469589;26;19962;-75
2024/04/25 15:04:09;;;;;;;;;;;;;;;;;;5468865;26;19932;-74
2024/04/25 15:06:35;;;;;;;;;;;;;;;;;;5469417;26;19936;-74
2024/04/25 15:09:01;;;;;;;;;;;;;;;;;;5469226;26;19929;-74
2024/04/25 15:11:27;;;;;;;;;;;;;;;;;;5468965;26;20416;-75
2024/04/25 15:13:53;;;;;;;;;;;;;;;;;;5469372;26;19925;-73
2024/04/25 15:16:19;;;;;;;;;;;;;;;;;;5469222;26;19924;-75
2024/04/25 15:18:45;;;;;;;;;;;;;;;;;;5468811;26;20368;-74
2024/04/25 15:21:11;;;;;;;;;;;;;;;;;;5469148;26;19932;-75
2024/04/25 15:23:37;;;;;;;;;;;;;;;;;;5469211;26;19955;-74
2024/04/25 15:26:03;;;;;;;;;;;;;;;;;;5468736;26;20292;-74
2024/04/25 15:28:29;;;;;;;;;;;;;;;;;;5468710;26;19932;-75
2024/04/25 15:32:22;;;;;;;;;;;;;;;;;;5621842;25;19926;-74
2024/04/25 15:34:47;;;;;;;;;;;;;;;;;;5588746;25;19940;-74
2024/04/25 15:37:16;;;;;;;;;;;;;;;;;;5588370;25;19930;-75
2024/04/25 15:39:42;;;;;;;;;;;;;;;;;;5588068;25;19933;-75
2024/04/25 15:42:08;;;;;;;;;;;;;;;;;;5622082;25;19926;-73
2024/04/25 15:44:34;;;;;;;;;;;;;;;;;;5622329;25;19926;-74
2024/04/25 15:47:01;;;;;;;;;;;;;;;;;;5621739;25;19926;-72
2024/04/25 15:52:21;;;;;;;;;;;;;;;;;;5621971;25;20020;-74
2024/04/25 15:54:48;;;;;;;;;;;;;;;;;;5621568;25;20363;-74
2024/04/25 15:57:14;;;;;;;;;;;;;;;;;;5622203;25;20259;-75
2024/04/25 15:59:41;;;;;;;;;;;;;;;;;;5621836;25;19938;-75
2024/04/25 16:02:07;;;;;;;;;;;;;;;;;;5621978;25;19951;-74
2024/04/25 16:04:33;;;;;;;;;;;;;;;;;;5588465;25;19938;-75
2024/04/25 16:06:59;;;;;;;;;;;;;;;;;;5621195;25;19926;-76
2024/04/25 16:09:25;;;;;;;;;;;;;;;;;;5588521;25;20250;-76
2024/04/25 16:11:53;;;;;;;;;;;;;;;;;;5622260;25;19934;-75
2024/04/25 16:14:19;;;;;;;;;;;;;;;;;;5621745;25;20254;-76
2024/04/25 16:16:45;;;;;;;;;;;;;;;;;;5621942;25;19926;-75
2024/04/25 16:19:11;;;;;;;;;;;;;;;;;;5622164;25;19933;-75
2024/04/25 16:21:36;;;;;;;;;;;;;;;;;;5621549;25;19926;-76
2024/04/25 16:24:02;;;;;;;;;;;;;;;;;;5622429;25;19938;-74
2024/04/25 16:26:28;;;;;;;;;;;;;;;;;;5621860;25;19926;-75
2024/04/25 16:28:55;;;;;;;;;;;;;;;;;;5621475;25;20393;-76
2024/04/25 16:31:21;;;;;;;;;;;;;;;;;;5621417;25;19954;-75
2024/04/25 16:33:47;;;;;;;;;;;;;;;;;;5621568;25;20000;-76
2024/04/25 16:36:20;;;;;;;;;;;;;;;;;;5621436;25;19935;-75
2024/04/25 16:38:46;;;;;;;;;;;;;;;;;;5621759;25;19930;-75
2024/04/25 16:41:11;;;;;;;;;;;;;;;;;;5621680;25;19926;-75
2024/04/25 16:43:37;;;;;;;;;;;;;;;;;;5571474;25;20441;-74
2024/04/25 16:46:03;;;;;;;;;;;;;;;;;;5571672;25;20240;-75
2024/04/25 16:48:29;;;;;;;;;;;;;;;;;;5571412;25;19933;-75
2024/04/25 16:50:55;;;;;;;;;;;;;;;;;;5571249;25;19926;-76
2024/04/25 16:53:21;;;;;;;;;;;;;;;;;;5605229;25;20279;-78
2024/04/25 16:55:49;;;;;;;;;;;;;;;;;;5604873;25;19926;-77
2024/04/25 16:58:16;;;;;;;;;;;;;;;;;;5571641;25;19937;-78
2024/04/25 17:00:42;;;;;;;;;;;;;;;;;;5605179;25;20254;-77
2024/04/25 17:03:08;;;;;;;;;;;;;;;;;;5604426;25;19938;-75
2024/04/25 17:05:34;;;;;;;;;;;;;;;;;;5604787;25;19927;-76
2024/04/25 17:08:00;;;;;;;;;;;;;;;;;;5605092;25;20391;-75
2024/04/25 17:10:27;;;;;;;;;;;;;;;;;;5604825;25;19934;-76
2024/04/25 17:12:53;;;;;;;;;;;;;;;;;;5605333;25;19933;-78